Time;durP1;ratioP1;P1;durP2;ratioP2;P2;SDS_P1;SDS_P2;PMS_P1;PMS_P2;Temp;Humidity;BMP_temperature;BMP_pressure;BME280_temperature;BME280_humidity;BME280_pressure;Samples;Min_cycle;Max_cycle;Signal;HPM_P1;HPM_P2
2023/08/20 00:00:06;;;;;;;18.05;17.25;;;;;;;-141.02;69.67;41584.50;5113169;28;20200;-63
2023/08/20 00:02:37;;;;;;;18.15;17.25;;;;;;;-141.02;69.99;41607.53;5113199;28;20277;-61
2023/08/20 00:05:05;;;;;;;17.88;16.98;;;;;;;-141.02;70.03;41617.13;5112817;28;20193;-62
2023/08/20 00:07:32;;;;;;;18.25;17.35;;;;;;;-141.02;70.11;41611.34;5113109;28;20232;-59
2023/08/20 00:10:01;;;;;;;18.92;17.92;;;;;;;-141.02;70.39;41597.94;5113569;28;20197;-61
2023/08/20 00:12:28;;;;;;;19.25;18.25;;;;;;;-141.02;70.29;41615.19;5112736;28;20655;-61
2023/08/20 00:14:58;;;;;;;19.38;18.38;;;;;;;-141.02;70.47;41649.75;5112691;28;20204;-61
2023/08/20 00:17:26;;;;;;;19.45;18.45;;;;;;;-141.02;70.77;41613.28;5112624;28;20200;-65
2023/08/20 00:19:55;;;;;;;20.15;19.05;;;;;;;-141.02;70.85;41615.19;5112693;28;20709;-63
2023/08/20 00:22:24;;;;;;;19.63;18.63;;;;;;;-141.02;71.40;41634.38;5112634;28;20194;-66
2023/08/20 00:24:52;;;;;;;19.33;18.33;;;;;;;-141.02;71.47;41630.56;5112903;28;20189;-62
2023/08/20 00:27:21;;;;;;;19.13;18.13;;;;;;;-141.02;71.53;41599.84;5112502;28;20254;-64
2023/08/20 00:29:48;;;;;;;19.00;18.00;;;;;;;-141.02;71.41;41599.84;5112829;28;20195;-61
2023/08/20 00:32:16;;;;;;;18.83;17.83;;;;;;;-141.02;71.84;41609.44;5112372;28;20292;-63
2023/08/20 00:34:42;;;;;;;20.35;19.25;;;;;;;-141.02;71.55;41611.34;5112814;28;20219;-68
2023/08/20 00:37:09;;;;;;;18.70;17.70;;;;;;;-141.02;71.96;41626.72;5112470;28;20193;-60
2023/08/20 00:39:36;;;;;;;18.10;17.20;;;;;;;-141.02;72.39;41615.19;5112632;28;20197;-62
2023/08/20 00:42:04;;;;;;;18.17;17.27;;;;;;;-141.02;72.56;41647.81;5112589;28;20247;-63
2023/08/20 00:44:33;;;;;;;18.45;17.55;;;;;;;-141.02;72.54;41596.00;5112621;28;20197;-63
2023/08/20 00:47:01;;;;;;;18.13;17.23;;;;;;;-141.02;72.78;41649.75;5112652;28;20189;-59
2023/08/20 00:49:28;;;;;;;18.23;17.33;;;;;;;-141.02;73.21;41647.81;5112626;28;20208;-62
2023/08/20 00:51:55;;;;;;;17.50;16.70;;;;;;;-141.02;73.31;41640.16;5112591;28;20193;-60
2023/08/20 00:54:23;;;;;;;17.95;17.05;;;;;;;-141.02;73.30;41645.91;5112555;28;20188;-66
2023/08/20 00:56:51;;;;;;;17.85;16.95;;;;;;;-141.02;73.90;41638.22;5112034;28;20229;-60
2023/08/20 00:59:18;;;;;;;18.00;17.10;;;;;;;-141.02;73.93;41642.06;5112207;28;20284;-63
2023/08/20 01:01:46;;;;;;;18.00;17.10;;;;;;;-141.02;73.75;41632.47;5112401;28;20242;-67
2023/08/20 01:04:13;;;;;;;17.63;16.77;;;;;;;-141.02;73.44;41622.88;5112506;28;20276;-66
2023/08/20 01:06:48;;;;;;;17.77;16.88;;;;;;;-141.02;73.52;41634.38;5112124;28;20194;-67
2023/08/20 01:09:24;;;;;;;17.75;16.85;;;;;;;-141.02;73.59;41649.75;5112501;28;20203;-65
2023/08/20 01:11:57;;;;;;;18.00;17.10;;;;;;;-141.02;73.42;41615.19;5112813;28;20185;-67
2023/08/20 01:14:24;;;;;;;17.77;16.88;;;;;;;-141.02;73.08;41624.78;5112117;28;20192;-68
2023/08/20 01:16:52;;;;;;;17.75;16.85;;;;;;;-141.02;73.21;41613.28;5112347;28;20197;-66
2023/08/20 01:19:23;;;;;;;17.63;16.75;;;;;;;-141.02;73.39;41624.78;5112008;28;20189;-66
2023/08/20 01:22:07;;;;;;;17.83;16.92;;;;;;;-141.02;73.49;41630.56;5111960;28;20717;-63
2023/08/20 01:24:48;;;;;;;17.65;16.75;;;;;;;-141.02;74.25;41622.88;5112328;28;20192;-67
2023/08/20 01:27:34;;;;;;;17.52;16.73;;;;;;;-141.02;74.66;41653.59;5111997;28;20190;-64
2023/08/20 01:30:04;;;;;;;17.75;16.85;;;;;;;-141.02;75.13;41642.06;5111992;28;20536;-65
2023/08/20 01:32:31;;;;;;;17.98;17.08;;;;;;;-141.02;75.03;41645.91;5111776;28;20204;-66
2023/08/20 01:34:58;;;;;;;17.75;16.85;;;;;;;-141.02;75.18;41624.78;5111878;28;20655;-66
2023/08/20 01:37:24;;;;;;;17.38;16.58;;;;;;;-141.02;75.19;41632.47;5112183;28;20201;-67
2023/08/20 01:39:51;;;;;;;17.73;16.83;;;;;;;-141.02;74.95;41651.66;5111847;28;20570;-67
2023/08/20 01:42:19;;;;;;;17.38;16.58;;;;;;;-141.02;75.15;41643.97;5111677;28;20695;-66
2023/08/20 01:44:46;;;;;;;17.48;16.67;;;;;;;-141.02;75.55;41636.31;5114145;28;20193;-65
2023/08/20 01:47:52;;;;;;;17.48;16.67;;;;;;;-141.02;76.13;41636.31;5115542;28;20194;-61
2023/08/20 01:50:20;;;;;;;17.48;16.67;;;;;;;-141.02;77.21;41649.75;5115522;28;20196;-61
2023/08/20 01:52:47;;;;;;;17.73;16.83;;;;;;;-141.02;77.71;41638.22;5115685;28;20205;-65
2023/08/20 01:55:14;;;;;;;17.88;16.98;;;;;;;-141.02;78.45;41645.91;5115331;28;20690;-60
2023/08/20 01:57:41;;;;;;;17.60;16.70;;;;;;;-141.02;78.87;41653.59;5115036;28;20702;-61
2023/08/20 02:00:09;;;;;;;17.60;16.70;;;;;;;-141.02;79.03;41649.75;5115257;28;20189;-59
2023/08/20 02:02:36;;;;;;;17.27;16.48;;;;;;;-141.02;79.19;41643.97;5115080;28;20221;-61
2023/08/20 02:05:04;;;;;;;17.25;16.45;;;;;;;-141.02;79.40;41630.56;5115431;28;20193;-59
2023/08/20 02:07:32;;;;;;;17.20;16.40;;;;;;;-141.02;79.82;41624.78;5115115;28;20317;-62
2023/08/20 02:09:59;;;;;;;17.00;16.20;;;;;;;-141.02;80.15;41630.56;5115012;28;20279;-62
2023/08/20 02:12:27;;;;;;;17.00;16.20;;;;;;;-141.02;80.55;41655.50;5115356;28;20197;-64
2023/08/20 02:14:54;;;;;;;17.35;16.55;;;;;;;-141.02;81.20;41655.50;5114981;28;20193;-61
2023/08/20 02:17:21;;;;;;;17.45;16.63;;;;;;;-141.02;81.21;41634.38;5114947;28;20197;-60
2023/08/20 02:19:48;;;;;;;17.42;16.63;;;;;;;-141.02;81.85;41624.78;5114941;28;20375;-62
2023/08/20 02:22:14;;;;;;;17.20;16.40;;;;;;;-141.02;82.57;41611.34;5115038;28;20236;-60
2023/08/20 02:24:43;;;;;;;17.20;16.40;;;;;;;-141.02;83.03;41636.31;5114786;28;20197;-62
2023/08/20 02:27:10;;;;;;;17.58;16.77;;;;;;;-141.02;84.11;41528.84;5114985;28;20201;-59
2023/08/20 02:29:36;;;;;;;17.27;16.48;;;;;;;-141.02;84.45;41619.03;5114692;28;20196;-61
2023/08/20 02:32:03;;;;;;;17.10;16.30;;;;;;;-141.02;84.50;41599.84;5114613;28;20197;-61
2023/08/20 02:34:30;;;;;;;16.95;16.15;;;;;;;-141.02;84.81;41592.16;5114645;27;20199;-61
2023/08/20 02:36:57;;;;;;;16.88;16.08;;;;;;;-141.02;85.26;41596.00;5114885;28;20203;-58
2023/08/20 02:39:24;;;;;;;16.88;16.08;;;;;;;-141.02;85.47;41601.75;5114764;28;20193;-61
2023/08/20 02:41:53;;;;;;;16.95;16.15;;;;;;;-141.02;86.50;41588.34;5114704;28;20232;-62
2023/08/20 02:44:20;;;;;;;16.58;15.88;;;;;;;-141.02;88.22;41580.66;5114689;28;20193;-61
2023/08/20 02:46:57;;;;;;;16.77;15.98;;;;;;;-141.02;90.58;41523.09;5114372;28;20201;-60
2023/08/20 02:49:24;;;;;;;16.55;15.75;;;;;;;-141.02;92.60;41463.59;5114581;28;20275;-60
2023/08/20 02:51:51;;;;;;;16.55;15.75;;;;;;;-141.02;94.66;41365.72;5114213;28;20200;-59
2023/08/20 02:54:18;;;;;;;16.50;15.73;;;;;;;-141.02;95.58;41315.84;5114168;28;20193;-59
2023/08/20 02:56:45;;;;;;;16.08;15.38;;;;;;;-141.02;96.96;41258.28;5113114;28;20232;-62
2023/08/20 02:59:13;;;;;;;16.05;15.35;;;;;;;-141.02;97.97;41177.69;5114403;28;20197;-64
2023/08/20 03:01:40;;;;;;;15.90;15.20;;;;;;;-141.02;99.57;41110.53;5113921;28;20690;-61
2023/08/20 03:04:07;;;;;;;15.93;15.23;;;;;;;-141.02;100.00;41064.47;5114271;28;20189;-61
2023/08/20 03:06:34;;;;;;;15.95;15.25;;;;;;;-141.02;100.00;41020.34;5114645;28;20578;-58
2023/08/20 03:09:01;;;;;;;16.00;15.30;;;;;;;-141.02;100.00;40949.34;5114195;28;20196;-62
2023/08/20 03:11:28;;;;;;;15.18;14.57;;;;;;;-141.02;100.00;40874.53;5114133;27;20193;-62
2023/08/20 03:13:55;;;;;;;15.48;14.88;;;;;;;-141.02;100.00;40786.28;5113782;28;20590;-61
2023/08/20 03:16:23;;;;;;;15.15;14.55;;;;;;;-141.02;100.00;40759.41;5113741;28;20189;-61
2023/08/20 03:18:50;;;;;;;14.82;14.23;;;;;;;-141.02;100.00;40705.69;5114002;28;20200;-61
2023/08/20 03:21:17;;;;;;;14.77;14.18;;;;;;;-141.02;100.00;40671.16;5113916;28;20225;-61
2023/08/20 03:23:44;;;;;;;14.50;14.00;;;;;;;-141.02;100.00;40579.06;5113896;28;20199;-61
2023/08/20 03:26:11;;;;;;;14.57;14.07;;;;;;;-141.02;100.00;40571.41;5113878;28;20197;-65
2023/08/20 03:28:38;;;;;;;14.38;13.88;;;;;;;-141.02;100.00;40525.34;5113852;28;20197;-60
2023/08/20 03:31:04;;;;;;;14.20;13.70;;;;;;;-141.02;100.00;40475.47;5113440;28;20246;-62
2023/08/20 03:33:33;;;;;;;13.98;13.48;;;;;;;-141.02;100.00;40534.94;5113719;28;20292;-62
2023/08/20 03:36:00;;;;;;;13.75;13.25;;;;;;;-141.02;100.00;40492.75;5113389;28;20196;-61
2023/08/20 03:38:27;;;;;;;14.13;13.63;;;;;;;-141.02;100.00;40515.75;5113283;28;20199;-66
2023/08/20 03:40:56;;;;;;;13.80;13.30;;;;;;;-141.02;100.00;40521.50;5113323;28;20287;-62
2023/08/20 03:43:23;;;;;;;13.65;13.15;;;;;;;-141.02;100.00;40559.88;5113120;28;20618;-66
2023/08/20 03:45:51;;;;;;;13.95;13.45;;;;;;;-141.02;100.00;40617.44;5113173;28;20711;-66
2023/08/20 03:48:18;;;;;;;13.48;13.07;;;;;;;-141.02;100.00;40667.31;5113140;28;20197;-62
2023/08/20 03:50:46;;;;;;;13.30;12.90;;;;;;;-141.02;100.00;40719.13;5113444;28;20201;-66
2023/08/20 03:53:13;;;;;;;13.18;12.77;;;;;;;-141.02;100.00;40778.59;5113098;28;20197;-65
2023/08/20 03:55:40;;;;;;;13.30;12.90;;;;;;;-141.02;100.00;40834.22;5113308;28;20193;-64
2023/08/20 03:58:08;;;;;;;13.30;12.90;;;;;;;-141.02;100.00;40882.19;5112850;28;20711;-66
2023/08/20 04:00:35;;;;;;;12.90;12.50;;;;;;;-141.02;100.00;40916.75;5113320;28;20254;-66
2023/08/20 04:03:02;;;;;;;12.95;12.55;;;;;;;-141.02;100.00;41020.34;5112824;28;20315;-65
2023/08/20 04:05:29;;;;;;;13.02;12.63;;;;;;;-141.02;100.00;41058.72;5113226;28;20311;-64
2023/08/20 04:07:58;;;;;;;13.07;12.68;;;;;;;-141.02;100.00;41083.66;5112839;28;20195;-64
2023/08/20 04:10:25;;;;;;;13.43;13.02;;;;;;;-141.02;100.00;41154.66;5113143;28;20274;-62
2023/08/20 04:12:52;;;;;;;13.30;12.90;;;;;;;-141.02;100.00;41415.63;5113112;28;20624;-63
2023/08/20 04:15:19;;;;;;;13.60;13.20;;;;;;;-141.02;100.00;41665.09;5112793;28;20651;-65
2023/08/20 04:17:46;;;;;;;14.30;13.80;;;;;;;-141.02;100.00;41711.16;5112691;28;20570;-64
2023/08/20 04:20:12;;;;;;;14.77;14.27;;;;;;;-141.02;100.00;41818.63;5112705;28;20309;-65
2023/08/20 04:22:40;;;;;;;15.45;14.85;;;;;;;-141.02;100.00;41903.06;5112845;28;20321;-65
2023/08/20 04:25:09;;;;;;;15.60;15.00;;;;;;;-141.02;100.00;41997.13;5112617;28;20193;-66
2023/08/20 04:27:36;;;;;;;15.75;15.15;;;;;;;-141.02;99.25;42027.81;5112871;28;20199;-64
2023/08/20 04:30:03;;;;;;;16.05;15.38;;;;;;;-141.02;97.64;42083.47;5112571;28;20283;-65
2023/08/20 04:32:30;;;;;;;16.17;15.48;;;;;;;-141.02;95.99;42152.56;5112495;28;20288;-62
2023/08/20 04:34:56;;;;;;;15.85;15.25;;;;;;;-141.02;94.37;42183.28;5112525;28;20626;-66
2023/08/20 04:37:23;;;;;;;16.70;16.00;;;;;;;-141.02;92.64;42154.50;5112392;28;20201;-65
2023/08/20 04:39:50;;;;;;;16.55;15.85;;;;;;;-141.02;92.10;42190.97;5112725;28;20284;-66
2023/08/20 04:42:19;;;;;;;16.75;16.05;;;;;;;-141.02;93.60;42106.50;5112297;28;20717;-66
2023/08/20 04:44:46;;;;;;;16.77;16.08;;;;;;;-141.02;94.45;41799.44;5112698;28;20193;-65
2023/08/20 04:47:13;;;;;;;16.98;16.27;;;;;;;-141.02;95.48;41870.44;5112385;28;20199;-65
2023/08/20 04:49:40;;;;;;;16.83;16.13;;;;;;;-141.02;97.62;41780.25;5112630;28;20201;-65
2023/08/20 04:52:07;;;;;;;16.20;15.50;;;;;;;-141.02;97.94;41774.47;5112343;28;20291;-66
2023/08/20 04:54:34;;;;;;;16.23;15.52;;;;;;;-141.02;99.74;42006.72;5112581;28;20193;-67
2023/08/20 04:57:01;;;;;;;16.10;15.43;;;;;;;-141.02;100.00;42087.31;5112226;28;20225;-65
2023/08/20 04:59:30;;;;;;;16.05;15.35;;;;;;;-141.02;100.00;41976.00;5112350;28;20204;-65
2023/08/20 05:01:57;;;;;;;16.23;15.52;;;;;;;-141.02;99.20;42177.53;5112229;28;20706;-66
2023/08/20 05:04:24;;;;;;;16.42;15.73;;;;;;;-141.02;99.91;42142.97;5112556;28;20276;-66
2023/08/20 05:06:51;;;;;;;15.70;15.10;;;;;;;-141.02;100.00;42045.09;5112354;28;20196;-66
2023/08/20 05:09:18;;;;;;;15.70;15.10;;;;;;;-141.02;99.54;41903.06;5112205;28;20671;-65
2023/08/20 05:11:45;;;;;;;15.60;15.00;;;;;;;-141.02;97.35;41906.91;5112179;28;20284;-65
2023/08/20 05:14:12;;;;;;;16.20;15.50;;;;;;;-141.02;98.35;41858.94;5112473;28;20193;-66
2023/08/20 05:16:40;;;;;;;16.00;15.30;;;;;;;-141.02;99.31;41864.69;5112390;28;20197;-63
2023/08/20 05:19:07;;;;;;;15.50;14.90;;;;;;;-141.02;100.00;41929.94;5113506;28;20705;-65
2023/08/20 05:21:34;;;;;;;15.93;15.32;;;;;;;-141.02;100.00;41914.59;5115932;28;20743;-66
2023/08/20 05:24:00;;;;;;;15.85;15.25;;;;;;;-141.02;100.00;41906.91;5115912;28;20565;-64
2023/08/20 05:26:27;;;;;;;16.33;15.63;;;;;;;-141.02;100.00;41914.59;5115949;28;20232;-66
2023/08/20 05:28:54;;;;;;;16.38;15.68;;;;;;;-141.02;100.00;41933.78;5115911;28;20723;-66
2023/08/20 05:31:22;;;;;;;16.10;15.40;;;;;;;-141.02;100.00;41949.13;5115828;28;20693;-64
2023/08/20 05:33:50;;;;;;;15.70;15.05;;;;;;;-141.02;100.00;41993.28;5116105;28;20201;-65
2023/08/20 05:36:17;;;;;;;15.82;15.18;;;;;;;-141.02;100.00;42008.63;5115992;28;20197;-65
2023/08/20 05:38:44;;;;;;;15.88;15.18;;;;;;;-141.02;100.00;42045.09;5116027;28;20277;-64
2023/08/20 05:41:11;;;;;;;16.05;15.35;;;;;;;-141.02;100.00;42060.44;5115628;28;20673;-65
2023/08/20 05:43:38;;;;;;;16.30;15.60;;;;;;;-141.02;100.00;42068.13;5115496;28;20302;-63
2023/08/20 05:46:05;;;;;;;16.25;15.55;;;;;;;-141.02;100.00;42098.84;5115922;28;20250;-66
2023/08/20 05:48:32;;;;;;;16.52;15.82;;;;;;;-141.02;99.34;42125.69;5115479;28;20284;-65
2023/08/20 05:51:00;;;;;;;16.45;15.75;;;;;;;-141.02;98.03;42141.06;5115828;28;20292;-65
2023/08/20 05:53:27;;;;;;;16.42;15.73;;;;;;;-141.02;98.64;42194.81;5115462;28;20236;-63
2023/08/20 05:55:54;;;;;;;16.58;15.88;;;;;;;-141.02;97.19;42233.19;5115371;28;20292;-66
2023/08/20 05:58:21;;;;;;;16.55;15.85;;;;;;;-141.02;94.29;42219.75;5115198;28;20265;-64
2023/08/20 06:00:48;;;;;;;16.88;16.17;;;;;;;-141.02;92.61;42279.25;5115588;28;20221;-61
2023/08/20 06:03:15;;;;;;;16.70;16.00;;;;;;;-141.02;89.91;42290.78;5115250;27;20221;-65
2023/08/20 06:05:42;;;;;;;16.88;16.17;;;;;;;-141.02;88.51;42298.44;5115462;28;20200;-65
2023/08/20 06:08:10;;;;;;;17.00;16.20;;;;;;;-141.02;87.62;42313.81;5115232;28;20755;-63
2023/08/20 06:10:37;;;;;;;17.08;16.27;;;;;;;-141.02;87.65;42306.13;5115471;28;20195;-65
2023/08/20 06:13:04;;;;;;;16.73;16.02;;;;;;;-141.02;89.16;42367.56;5114993;28;20254;-66
2023/08/20 06:15:31;;;;;;;17.15;16.35;;;;;;;-141.02;87.08;42281.19;5114965;28;20200;-66
2023/08/20 06:17:58;;;;;;;17.00;16.20;;;;;;;-141.02;86.09;42398.25;5114956;28;20232;-66
2023/08/20 06:20:25;;;;;;;16.95;16.15;;;;;;;-141.02;85.17;42352.19;5114866;28;20677;-66
2023/08/20 06:22:52;;;;;;;17.23;16.42;;;;;;;-141.02;85.99;42423.22;5114752;28;20260;-67
2023/08/20 06:25:21;;;;;;;18.83;17.92;;;;;;;-141.02;83.44;42407.84;5114894;28;20281;-66
2023/08/20 06:27:48;;;;;;;17.25;16.45;;;;;;;-141.02;83.84;42413.63;5115076;28;20195;-65
2023/08/20 06:30:15;;;;;;;17.30;16.50;;;;;;;-141.02;82.92;42484.63;5114853;28;20228;-66
2023/08/20 06:32:42;;;;;;;17.00;16.20;;;;;;;-141.02;81.76;42490.41;5114720;28;20631;-57
2023/08/20 06:35:10;;;;;;;17.15;16.35;;;;;;;-141.02;80.14;42505.75;5114896;28;20193;-61
2023/08/20 06:37:37;;;;;;;17.17;16.38;;;;;;;-141.02;79.62;42509.59;5114904;28;20189;-66
2023/08/20 06:40:05;;;;;;;17.25;16.52;;;;;;;-141.02;78.79;42523.03;5114857;28;20189;-65
2023/08/20 06:42:34;;;;;;;17.38;16.58;;;;;;;-141.02;78.27;42572.94;5114330;28;20229;-61
2023/08/20 06:45:01;;;;;;;16.90;16.10;;;;;;;-141.02;77.64;42645.88;5114499;28;20650;-61
2023/08/20 06:47:28;;;;;;;17.60;16.80;;;;;;;-141.02;77.50;42655.47;5114430;28;20284;-64
2023/08/20 06:49:55;;;;;;;17.02;16.33;;;;;;;-141.02;76.80;42724.59;5114637;28;20193;-63
2023/08/20 06:52:21;;;;;;;17.08;16.27;;;;;;;-141.02;76.85;42855.13;5114320;28;20287;-61
2023/08/20 06:54:48;;;;;;;16.92;16.13;;;;;;;-141.02;73.90;42916.56;5114145;28;20189;-58
2023/08/20 06:57:15;;;;;;;16.98;16.20;;;;;;;-141.02;72.21;42958.81;5113994;28;20221;-62
2023/08/20 06:59:44;;;;;;;16.98;16.17;;;;;;;-141.02;69.68;42991.44;5114180;28;20288;-65
2023/08/20 07:02:11;;;;;;;17.00;16.20;;;;;;;-141.02;69.17;43077.84;5114324;28;20201;-61
2023/08/20 07:04:38;;;;;;;17.15;16.35;;;;;;;-141.02;67.75;42716.91;5114005;27;20654;-62
2023/08/20 07:07:05;;;;;;;17.17;16.38;;;;;;;-141.02;66.32;43008.72;5114309;28;20285;-59
2023/08/20 07:09:32;;;;;;;17.50;16.70;;;;;;;-141.02;65.53;43035.59;5114280;28;20193;-65
2023/08/20 07:11:59;;;;;;;16.98;16.17;;;;;;;-141.02;64.88;43016.41;5114194;28;20197;-58
2023/08/20 07:14:26;;;;;;;16.85;16.05;;;;;;;-141.02;65.14;43054.78;5114126;28;20297;-60
2023/08/20 07:16:55;;;;;;;16.70;15.90;;;;;;;-141.02;65.06;42939.59;5114098;28;20275;-60
2023/08/20 07:19:22;;;;;;;17.05;16.25;;;;;;;-141.02;65.31;42943.44;5113778;28;20189;-60
2023/08/20 07:21:49;;;;;;;16.95;16.15;;;;;;;-141.02;66.01;43162.31;5114035;28;20193;-60
2023/08/20 07:24:16;;;;;;;16.73;15.93;;;;;;;-141.02;63.14;43193.03;5113587;28;20228;-58
2023/08/20 07:26:43;;;;;;;16.80;16.00;;;;;;;-141.02;65.25;43304.38;5113886;28;20197;-61
2023/08/20 07:29:10;;;;;;;16.52;15.82;;;;;;;-141.02;62.68;43423.44;5113841;28;20305;-61
2023/08/20 07:31:37;;;;;;;16.77;15.98;;;;;;;-141.02;61.96;43469.50;5113529;28;20284;-62
2023/08/20 07:34:06;;;;;;;16.70;15.90;;;;;;;-141.02;59.79;43473.34;5113497;28;20193;-60
2023/08/20 07:36:33;;;;;;;16.58;15.77;;;;;;;-141.02;59.91;43488.72;5113409;28;20233;-62
2023/08/20 07:39:00;;;;;;;16.90;16.10;;;;;;;-141.02;57.93;43525.19;5113375;28;20686;-60
2023/08/20 07:41:27;;;;;;;17.27;16.48;;;;;;;-141.02;55.99;43584.72;5113010;28;20199;-64
2023/08/20 07:43:54;;;;;;;16.83;16.02;;;;;;;-141.02;53.11;43465.66;5113480;28;20233;-60
2023/08/20 07:46:21;;;;;;;16.67;15.88;;;;;;;-141.02;53.07;43262.16;5113472;28;20203;-66
2023/08/20 07:48:48;;;;;;;16.98;16.17;;;;;;;-141.02;52.87;43020.25;5113209;28;20189;-62
2023/08/20 07:51:16;;;;;;;16.80;16.00;;;;;;;-141.02;53.82;43001.03;5113527;28;20214;-61
2023/08/20 07:53:43;;;;;;;16.88;16.08;;;;;;;-141.02;54.62;43045.19;5113031;28;20193;-61
2023/08/20 07:56:10;;;;;;;16.60;15.80;;;;;;;-141.02;53.78;43074.00;5113029;28;20379;-58
2023/08/20 07:58:37;;;;;;;16.40;15.60;;;;;;;-141.02;53.28;43143.09;5112859;28;20260;-58
2023/08/20 08:01:04;;;;;;;16.58;15.77;;;;;;;-141.02;53.04;43162.31;5112999;28;20284;-63
2023/08/20 08:03:31;;;;;;;16.20;15.40;;;;;;;-141.02;52.50;43139.28;5113192;28;20228;-61
2023/08/20 08:05:58;;;;;;;16.20;15.40;;;;;;;-141.02;53.25;43081.66;5113219;28;20243;-59
2023/08/20 08:08:26;;;;;;;16.50;15.70;;;;;;;-141.02;52.96;43135.44;5112842;28;20204;-60
2023/08/20 08:10:53;;;;;;;16.52;15.73;;;;;;;-141.02;52.50;43254.47;5112771;28;20663;-64
2023/08/20 08:13:23;;;;;;;16.45;15.65;;;;;;;-141.02;52.89;43235.28;5112758;28;20392;-66
2023/08/20 08:15:51;;;;;;;16.48;15.68;;;;;;;-141.02;52.91;43254.47;5113022;28;20197;-62
2023/08/20 08:18:18;;;;;;;16.17;15.48;;;;;;;-141.02;53.35;43254.47;5113037;28;20229;-65
2023/08/20 08:20:45;;;;;;;15.93;15.23;;;;;;;-141.02;53.48;43323.59;5112997;28;20196;-63
2023/08/20 08:23:12;;;;;;;15.88;15.18;;;;;;;-141.02;52.88;43244.88;5112821;28;20312;-59
2023/08/20 08:25:41;;;;;;;16.13;15.43;;;;;;;-141.02;53.41;43246.78;5112599;28;20188;-58
2023/08/20 08:28:08;;;;;;;16.20;15.40;;;;;;;-141.02;53.63;43181.50;5112513;28;20193;-61
2023/08/20 08:30:35;;;;;;;16.17;15.48;;;;;;;-141.02;54.97;43154.63;5112912;28;20272;-64
2023/08/20 08:33:02;;;;;;;15.80;15.10;;;;;;;-141.02;54.91;43208.38;5112773;28;20287;-65
2023/08/20 08:35:30;;;;;;;15.98;15.27;;;;;;;-141.02;54.51;43252.56;5112801;28;20205;-64
2023/08/20 08:37:58;;;;;;;16.10;15.40;;;;;;;-141.02;54.21;43239.09;5112415;28;20201;-59
2023/08/20 08:40:28;;;;;;;16.00;15.30;;;;;;;-141.02;54.78;43242.94;5112394;28;20682;-62
2023/08/20 08:42:57;;;;;;;15.95;15.25;;;;;;;-141.02;54.65;43269.81;5112646;28;20217;-63
2023/08/20 08:45:24;;;;;;;16.10;15.40;;;;;;;-141.02;54.64;43189.19;5113228;28;20193;-58
2023/08/20 08:47:54;;;;;;;15.82;15.13;;;;;;;-141.02;53.63;43327.44;5112315;28;20288;-59
2023/08/20 08:50:22;;;;;;;16.10;15.40;;;;;;;-141.02;52.33;43314.00;5112361;28;20193;-60
2023/08/20 08:52:51;;;;;;;15.90;15.20;;;;;;;-141.02;52.93;43465.66;5112612;28;20193;-62
2023/08/20 08:55:18;;;;;;;15.98;15.27;;;;;;;-141.02;52.24;43571.28;5116602;28;20193;-61
2023/08/20 08:57:46;;;;;;;16.08;15.38;;;;;;;-141.02;52.76;43400.38;5116449;28;20233;-60
2023/08/20 09:00:15;;;;;;;15.88;15.18;;;;;;;-141.02;51.55;43385.03;5116774;28;20189;-60
2023/08/20 09:02:42;;;;;;;16.02;15.32;;;;;;;-141.02;52.20;43335.09;5116327;28;20725;-65
2023/08/20 09:05:09;;;;;;;16.33;15.63;;;;;;;-141.02;51.65;43461.84;5116685;28;20219;-62
2023/08/20 09:07:36;;;;;;;15.85;15.15;;;;;;;-141.02;50.35;43603.94;5116358;28;20203;-59
2023/08/20 09:10:03;;;;;;;16.15;15.45;;;;;;;-141.02;50.99;43646.16;5116234;28;20193;-61
2023/08/20 09:12:35;;;;;;;16.35;15.65;;;;;;;-141.02;51.30;43367.75;5116242;28;20196;-63
2023/08/20 09:15:02;;;;;;;16.10;15.40;;;;;;;-141.02;51.32;43358.16;5116211;28;20192;-61
2023/08/20 09:17:31;;;;;;;16.02;15.32;;;;;;;-141.02;51.92;43365.81;5116117;28;20203;-61
2023/08/20 09:19:58;;;;;;;15.70;15.00;;;;;;;-141.02;52.36;43312.06;5116037;28;20279;-59
2023/08/20 09:22:25;;;;;;;15.65;14.95;;;;;;;-141.02;51.89;43315.91;5116326;28;20189;-63
2023/08/20 09:24:56;;;;;;;16.80;16.10;;;;;;;-141.02;51.75;43362.00;5115872;28;20587;-62
2023/08/20 09:27:24;;;;;;;15.65;14.95;;;;;;;-141.02;51.51;43423.44;5116301;28;20225;-62
2023/08/20 09:29:53;;;;;;;15.80;15.10;;;;;;;-141.02;50.71;43346.63;5116174;28;20627;-59
2023/08/20 09:32:22;;;;;;;15.70;15.00;;;;;;;-141.02;52.07;43231.44;5115789;28;20579;-64
2023/08/20 09:34:52;;;;;;;15.63;14.93;;;;;;;-141.02;51.83;43287.09;5115766;28;20197;-62
2023/08/20 09:37:20;;;;;;;15.60;14.90;;;;;;;-141.02;50.91;43275.59;5115991;28;20197;-61
2023/08/20 09:39:47;;;;;;;15.90;15.20;;;;;;;-141.02;51.07;43308.22;5115723;28;20678;-63
2023/08/20 09:42:15;;;;;;;15.70;15.00;;;;;;;-141.02;50.23;43392.72;5115934;28;20236;-67
2023/08/20 09:44:44;;;;;;;15.98;15.27;;;;;;;-141.02;50.81;43298.63;5115803;28;20239;-61
2023/08/20 09:47:12;;;;;;;16.00;15.30;;;;;;;-141.02;50.01;43427.28;5115836;28;20280;-65
2023/08/20 09:49:40;;;;;;;15.98;15.27;;;;;;;-141.02;48.90;43335.09;5115434;28;20247;-62
2023/08/20 09:52:11;;;;;;;15.93;15.23;;;;;;;-141.02;50.49;43281.34;5115467;28;20236;-65
2023/08/20 09:54:49;;;;;;;15.70;15.00;;;;;;;-141.02;49.63;43315.91;5115680;28;20284;-64
2023/08/20 09:57:25;;;;;;;15.73;15.02;;;;;;;-141.02;48.50;43246.78;5115432;28;20605;-61
2023/08/20 09:59:53;;;;;;;15.85;15.15;;;;;;;-141.02;48.16;43304.38;5115597;28;20264;-66
2023/08/20 10:02:20;;;;;;;15.57;14.88;;;;;;;-141.02;47.75;43269.81;5115558;28;20280;-69
2023/08/20 10:04:50;;;;;;;15.80;15.10;;;;;;;-141.02;49.20;43289.03;5114857;28;20312;-62
2023/08/20 10:07:20;;;;;;;15.48;14.88;;;;;;;-141.02;49.52;43335.09;5115201;28;20193;-66
2023/08/20 10:09:47;;;;;;;15.50;14.90;;;;;;;-141.02;49.61;43373.50;5115433;28;20284;-66
2023/08/20 10:12:15;;;;;;;16.27;15.57;;;;;;;-141.02;49.72;43383.09;5115022;28;20291;-67
2023/08/20 10:14:42;;;;;;;15.32;14.73;;;;;;;-141.02;48.81;43557.84;5114984;28;20723;-67
2023/08/20 10:17:09;;;;;;;15.30;14.70;;;;;;;-141.02;48.77;43513.69;5114914;28;20195;-67
2023/08/20 10:19:37;;;;;;;15.65;14.98;;;;;;;-141.02;48.04;43477.19;5115187;28;20189;-67
2023/08/20 10:22:05;;;;;;;15.70;15.00;;;;;;;-141.02;48.17;43492.56;5114852;28;20197;-68
2023/08/20 10:24:47;;;;;;;15.90;15.20;;;;;;;-141.02;48.00;43381.19;5115034;28;20233;-69
2023/08/20 10:27:24;;;;;;;15.85;15.15;;;;;;;-141.02;48.24;43312.06;5115067;28;20190;-68
2023/08/20 10:29:53;;;;;;;15.57;14.98;;;;;;;-141.02;48.47;43296.72;5115048;28;20268;-68
2023/08/20 10:32:20;;;;;;;15.73;15.13;;;;;;;-141.02;47.55;43532.88;5114592;28;20667;-67
2023/08/20 10:34:52;;;;;;;15.88;15.27;;;;;;;-141.02;46.51;43442.63;5114895;28;20197;-67
2023/08/20 10:37:28;;;;;;;15.85;15.25;;;;;;;-141.02;48.05;43425.34;5114610;28;20189;-66
2023/08/20 10:39:57;;;;;;;16.10;15.40;;;;;;;-141.02;47.86;43390.78;5114574;28;20563;-67
2023/08/20 10:42:27;;;;;;;15.85;15.25;;;;;;;-141.02;48.20;43371.59;5114710;28;20193;-68
2023/08/20 10:45:03;;;;;;;15.63;15.02;;;;;;;-141.02;48.03;43396.56;5114361;28;20256;-66
2023/08/20 10:47:37;;;;;;;15.70;15.10;;;;;;;-141.02;48.23;43335.09;5114593;28;20197;-68
2023/08/20 10:50:06;;;;;;;15.57;14.98;;;;;;;-141.02;48.18;43386.94;5114905;28;20203;-68
2023/08/20 10:52:34;;;;;;;15.95;15.25;;;;;;;-141.02;47.58;43381.19;5114562;28;20250;-68
2023/08/20 10:55:05;;;;;;;15.63;15.02;;;;;;;-141.02;46.93;43425.34;5114580;28;20576;-67
2023/08/20 10:57:35;;;;;;;15.73;15.10;;;;;;;-141.02;46.43;43408.06;5114036;28;20320;-65
2023/08/20 11:00:11;;;;;;;16.10;15.40;;;;;;;-141.02;46.53;43446.47;5114150;28;20242;-67
2023/08/20 11:02:39;;;;;;;16.23;15.52;;;;;;;-141.02;45.72;43385.03;5114411;27;20189;-68